<?xml version="1.0" encoding="UTF-8" standalone="no" ?>
<gpx xmlns="http://www.topografix.com/GPX/1/1" xmlns:xsi="http://www.w3.org/2001/XMLSchema-instance" xsi:schemaLocation="http://www.topografix.com/GPX/1/1 http://www.topografix.com/GPX/1/1/gpx.xsd" version="1.1" creator="VisuGPX - https://www.visugpx.com">
  <metadata>
    <name>troisième entraînement</name>
    <desc><![CDATA[deuxième boucle identique à la précédente (second entrainement), avec une pause café chez René]]></desc>
  </metadata>
  <wpt lat="47.54106" lon="7.17037">
    <ele>362.79</ele>
    <name><![CDATA[0000005]]></name>
    <type><![CDATA[Point de départ]]></type>
  </wpt>
  <wpt lat="47.53818" lon="7.16929">
    <ele>387.69</ele>
    <name><![CDATA[0000006]]></name>
    <desc><![CDATA[<p><br /><h3>Nom: Segment: 1</h3><br />Heure de départ: 01/25/2018 12:34<br/>Heure d'arrivée: 01/25/2018 13:16<br/>Distance: 4,5km (00:41)<br/>Temps déplacement: 00:39<br/>Vitesse moyenne: 6,51 km/h<br/>Vitesse moyenne mouv.: 6,57 km/h<br/>Vitesse Max.: 8,51 km/h<br/>Altitude minimale: 362 m<br/>Altitude maximale: 438 m<br/>Vitesse de montée: 286 m/h<br/>Vitesse de descente: -213,5 m/h<br/>Gain d'altitude: 95 m<br/>Perte d'altitude: -72 m<br/>Temps de montée: 00:20<br/>Temps de descente: 00:20<br/></p>]]></desc>
    <type><![CDATA[Point d'arrivée]]></type>
  </wpt>
  <wpt lat="47.54171" lon="7.17077">
    <ele>410.4</ele>
    <name><![CDATA[0000007]]></name>
    <desc><![CDATA[<p><br /><h3>Nom: Segment: 1</h3><br />Heure de départ: 01/25/2018 12:34<br/>Heure d'arrivée: 01/25/2018 13:38<br/>Distance: 5,3km (01:03)<br/>Temps déplacement: 01:00<br/>Vitesse moyenne: 5,01 km/h<br/>Vitesse moyenne mouv.: 5,26 km/h<br/>Vitesse Max.: 17,43 km/h<br/>Altitude minimale: 345 m<br/>Altitude maximale: 438 m<br/>Vitesse de montée: 235,2 m/h<br/>Vitesse de descente: -281,9 m/h<br/>Gain d'altitude: 89 m<br/>Perte d'altitude: -103 m<br/>Temps de montée: 00:22<br/>Temps de descente: 00:22<br/></p>]]></desc>
    <type><![CDATA[Point d'arrivée]]></type>
  </wpt>
  <trk>
    <name><![CDATA[2018-01-25 12:34]]></name>
    <desc><![CDATA[<p>Heure de départ: 01/25/2018 12:34<br/>Heure d'arrivée: 01/25/2018 13:38<br/>Distance: 5,3 km (01:03)<br/>Temps déplacement: 01:00<br/>Vitesse moyenne: 5,01 km/h<br/>Vitesse moyenne mouv.: 5,26 km/h<br/>Vitesse Max.: 17,43 km/h<br/>Altitude minimale: 345 m<br/>Altitude maximale: 438 m<br/>Vitesse de montée: 141,4 m/h<br/>Vitesse de descente: -232 m/h<br/>Gain d'altitude: 95 m<br/>Perte d'altitude: -81 m<br/>Temps de montée: 00:40<br/>Temps de descente: 00:21<br/></p><hr align="center" width="480" style="height: 2px; width: 517px"/>]]></desc>
    <trkseg>
      <trkpt lat="47.54106" lon="7.17037">
        <ele>362.79</ele>
        <time>2018-01-25T11:34:56Z</time>
      </trkpt>
      <trkpt lat="47.54093" lon="7.17061">
        <ele>365.49</ele>
        <time>2018-01-25T11:35:09Z</time>
      </trkpt>
      <trkpt lat="47.5408" lon="7.17087">
        <ele>363.8</ele>
        <time>2018-01-25T11:35:21Z</time>
      </trkpt>
      <trkpt lat="47.5407" lon="7.1711">
        <ele>365.57</ele>
        <time>2018-01-25T11:35:31Z</time>
      </trkpt>
      <trkpt lat="47.5406" lon="7.17133">
        <ele>366.76</ele>
        <time>2018-01-25T11:35:43Z</time>
      </trkpt>
      <trkpt lat="47.54049" lon="7.1716">
        <ele>366.06</ele>
        <time>2018-01-25T11:35:55Z</time>
      </trkpt>
      <trkpt lat="47.54038" lon="7.17183">
        <ele>367.49</ele>
        <time>2018-01-25T11:36:07Z</time>
      </trkpt>
      <trkpt lat="47.54025" lon="7.17202">
        <ele>368.78</ele>
        <time>2018-01-25T11:36:19Z</time>
      </trkpt>
      <trkpt lat="47.54014" lon="7.17226">
        <ele>367.88</ele>
        <time>2018-01-25T11:36:33Z</time>
      </trkpt>
      <trkpt lat="47.53999" lon="7.17244">
        <ele>368.11</ele>
        <time>2018-01-25T11:36:47Z</time>
      </trkpt>
      <trkpt lat="47.53982" lon="7.17232">
        <ele>367.79</ele>
        <time>2018-01-25T11:36:59Z</time>
      </trkpt>
      <trkpt lat="47.53964" lon="7.17224">
        <ele>368.08</ele>
        <time>2018-01-25T11:37:11Z</time>
      </trkpt>
      <trkpt lat="47.53943" lon="7.17228">
        <ele>369.76</ele>
        <time>2018-01-25T11:37:23Z</time>
      </trkpt>
      <trkpt lat="47.53928" lon="7.1725">
        <ele>370.79</ele>
        <time>2018-01-25T11:37:33Z</time>
      </trkpt>
      <trkpt lat="47.53915" lon="7.17271">
        <ele>371.78</ele>
        <time>2018-01-25T11:37:45Z</time>
      </trkpt>
      <trkpt lat="47.53902" lon="7.17293">
        <ele>372.78</ele>
        <time>2018-01-25T11:37:57Z</time>
      </trkpt>
      <trkpt lat="47.53891" lon="7.17315">
        <ele>372.88</ele>
        <time>2018-01-25T11:38:09Z</time>
      </trkpt>
      <trkpt lat="47.53878" lon="7.17334">
        <ele>373.76</ele>
        <time>2018-01-25T11:38:21Z</time>
      </trkpt>
      <trkpt lat="47.53867" lon="7.1736">
        <ele>372.79</ele>
        <time>2018-01-25T11:38:35Z</time>
      </trkpt>
      <trkpt lat="47.53856" lon="7.17382">
        <ele>371.09</ele>
        <time>2018-01-25T11:39:10Z</time>
      </trkpt>
      <trkpt lat="47.53842" lon="7.17363">
        <ele>371.7</ele>
        <time>2018-01-25T11:39:24Z</time>
      </trkpt>
      <trkpt lat="47.53824" lon="7.17355">
        <ele>372.06</ele>
        <time>2018-01-25T11:39:36Z</time>
      </trkpt>
      <trkpt lat="47.53807" lon="7.17343">
        <ele>371.72</ele>
        <time>2018-01-25T11:39:50Z</time>
      </trkpt>
      <trkpt lat="47.5379" lon="7.1733">
        <ele>374.76</ele>
        <time>2018-01-25T11:40:04Z</time>
      </trkpt>
      <trkpt lat="47.53773" lon="7.17318">
        <ele>374.76</ele>
        <time>2018-01-25T11:40:16Z</time>
      </trkpt>
      <trkpt lat="47.53756" lon="7.17307">
        <ele>376.46</ele>
        <time>2018-01-25T11:40:28Z</time>
      </trkpt>
      <trkpt lat="47.53738" lon="7.17288">
        <ele>377.79</ele>
        <time>2018-01-25T11:40:43Z</time>
      </trkpt>
      <trkpt lat="47.53721" lon="7.1727">
        <ele>378.49</ele>
        <time>2018-01-25T11:40:55Z</time>
      </trkpt>
      <trkpt lat="47.53705" lon="7.17255">
        <ele>381.67</ele>
        <time>2018-01-25T11:41:07Z</time>
      </trkpt>
      <trkpt lat="47.53686" lon="7.17246">
        <ele>384.72</ele>
        <time>2018-01-25T11:41:21Z</time>
      </trkpt>
      <trkpt lat="47.53668" lon="7.17259">
        <ele>388.37</ele>
        <time>2018-01-25T11:41:33Z</time>
      </trkpt>
      <trkpt lat="47.53653" lon="7.17274">
        <ele>389.78</ele>
        <time>2018-01-25T11:41:43Z</time>
      </trkpt>
      <trkpt lat="47.53635" lon="7.17292">
        <ele>392.75</ele>
        <time>2018-01-25T11:41:57Z</time>
      </trkpt>
      <trkpt lat="47.53616" lon="7.17293">
        <ele>396.7</ele>
        <time>2018-01-25T11:42:15Z</time>
      </trkpt>
      <trkpt lat="47.53596" lon="7.17289">
        <ele>396.88</ele>
        <time>2018-01-25T11:42:27Z</time>
      </trkpt>
      <trkpt lat="47.53577" lon="7.17287">
        <ele>395.8</ele>
        <time>2018-01-25T11:42:37Z</time>
      </trkpt>
      <trkpt lat="47.53559" lon="7.17275">
        <ele>395.79</ele>
        <time>2018-01-25T11:42:53Z</time>
      </trkpt>
      <trkpt lat="47.53551" lon="7.17252">
        <ele>398.48</ele>
        <time>2018-01-25T11:43:03Z</time>
      </trkpt>
      <trkpt lat="47.53547" lon="7.17224">
        <ele>398.5</ele>
        <time>2018-01-25T11:43:17Z</time>
      </trkpt>
      <trkpt lat="47.53542" lon="7.17196">
        <ele>400.48</ele>
        <time>2018-01-25T11:43:29Z</time>
      </trkpt>
      <trkpt lat="47.53539" lon="7.17168">
        <ele>402.4</ele>
        <time>2018-01-25T11:43:41Z</time>
      </trkpt>
      <trkpt lat="47.53534" lon="7.17142">
        <ele>403.78</ele>
        <time>2018-01-25T11:43:51Z</time>
      </trkpt>
      <trkpt lat="47.5353" lon="7.17112">
        <ele>406.7</ele>
        <time>2018-01-25T11:44:03Z</time>
      </trkpt>
      <trkpt lat="47.53524" lon="7.17084">
        <ele>407</ele>
        <time>2018-01-25T11:44:15Z</time>
      </trkpt>
      <trkpt lat="47.53518" lon="7.17054">
        <ele>407.78</ele>
        <time>2018-01-25T11:44:29Z</time>
      </trkpt>
      <trkpt lat="47.53516" lon="7.17025">
        <ele>408.81</ele>
        <time>2018-01-25T11:44:43Z</time>
      </trkpt>
      <trkpt lat="47.53513" lon="7.16996">
        <ele>406.61</ele>
        <time>2018-01-25T11:44:55Z</time>
      </trkpt>
      <trkpt lat="47.53507" lon="7.16969">
        <ele>406.79</ele>
        <time>2018-01-25T11:45:07Z</time>
      </trkpt>
      <trkpt lat="47.53498" lon="7.16942">
        <ele>408.69</ele>
        <time>2018-01-25T11:45:19Z</time>
      </trkpt>
      <trkpt lat="47.53491" lon="7.16917">
        <ele>410.7</ele>
        <time>2018-01-25T11:45:31Z</time>
      </trkpt>
      <trkpt lat="47.53486" lon="7.1689">
        <ele>410.77</ele>
        <time>2018-01-25T11:45:41Z</time>
      </trkpt>
      <trkpt lat="47.53479" lon="7.16863">
        <ele>412.48</ele>
        <time>2018-01-25T11:45:53Z</time>
      </trkpt>
      <trkpt lat="47.53476" lon="7.16833">
        <ele>412.79</ele>
        <time>2018-01-25T11:46:05Z</time>
      </trkpt>
      <trkpt lat="47.5347" lon="7.16808">
        <ele>412.77</ele>
        <time>2018-01-25T11:46:15Z</time>
      </trkpt>
      <trkpt lat="47.53459" lon="7.16783">
        <ele>413.78</ele>
        <time>2018-01-25T11:46:29Z</time>
      </trkpt>
      <trkpt lat="47.53445" lon="7.16764">
        <ele>415.76</ele>
        <time>2018-01-25T11:46:41Z</time>
      </trkpt>
      <trkpt lat="47.53428" lon="7.16746">
        <ele>416.78</ele>
        <time>2018-01-25T11:46:53Z</time>
      </trkpt>
      <trkpt lat="47.53414" lon="7.16725">
        <ele>417.78</ele>
        <time>2018-01-25T11:47:05Z</time>
      </trkpt>
      <trkpt lat="47.53399" lon="7.16705">
        <ele>418.7</ele>
        <time>2018-01-25T11:47:17Z</time>
      </trkpt>
      <trkpt lat="47.53384" lon="7.16687">
        <ele>419.76</ele>
        <time>2018-01-25T11:47:29Z</time>
      </trkpt>
      <trkpt lat="47.53368" lon="7.16669">
        <ele>420.79</ele>
        <time>2018-01-25T11:47:41Z</time>
      </trkpt>
      <trkpt lat="47.53355" lon="7.16651">
        <ele>421.76</ele>
        <time>2018-01-25T11:47:53Z</time>
      </trkpt>
      <trkpt lat="47.53339" lon="7.16629">
        <ele>422.79</ele>
        <time>2018-01-25T11:48:07Z</time>
      </trkpt>
      <trkpt lat="47.5333" lon="7.16605">
        <ele>424.76</ele>
        <time>2018-01-25T11:48:21Z</time>
      </trkpt>
      <trkpt lat="47.53314" lon="7.16585">
        <ele>427.76</ele>
        <time>2018-01-25T11:48:35Z</time>
      </trkpt>
      <trkpt lat="47.53301" lon="7.16563">
        <ele>429.78</ele>
        <time>2018-01-25T11:48:47Z</time>
      </trkpt>
      <trkpt lat="47.53286" lon="7.16545">
        <ele>430.76</ele>
        <time>2018-01-25T11:49:01Z</time>
      </trkpt>
      <trkpt lat="47.53274" lon="7.16522">
        <ele>433.69</ele>
        <time>2018-01-25T11:49:13Z</time>
      </trkpt>
      <trkpt lat="47.53261" lon="7.16501">
        <ele>433.79</ele>
        <time>2018-01-25T11:49:25Z</time>
      </trkpt>
      <trkpt lat="47.53246" lon="7.16485">
        <ele>433.7</ele>
        <time>2018-01-25T11:49:37Z</time>
      </trkpt>
      <trkpt lat="47.53231" lon="7.16462">
        <ele>434.57</ele>
        <time>2018-01-25T11:49:51Z</time>
      </trkpt>
      <trkpt lat="47.53215" lon="7.16444">
        <ele>434.5</ele>
        <time>2018-01-25T11:50:03Z</time>
      </trkpt>
      <trkpt lat="47.53202" lon="7.16422">
        <ele>435.79</ele>
        <time>2018-01-25T11:50:17Z</time>
      </trkpt>
      <trkpt lat="47.53187" lon="7.16398">
        <ele>438.46</ele>
        <time>2018-01-25T11:50:31Z</time>
      </trkpt>
      <trkpt lat="47.53172" lon="7.16379">
        <ele>437.88</ele>
        <time>2018-01-25T11:50:43Z</time>
      </trkpt>
      <trkpt lat="47.53157" lon="7.16359">
        <ele>435.88</ele>
        <time>2018-01-25T11:50:54Z</time>
      </trkpt>
      <trkpt lat="47.53141" lon="7.1634">
        <ele>434.61</ele>
        <time>2018-01-25T11:51:06Z</time>
      </trkpt>
      <trkpt lat="47.53129" lon="7.16317">
        <ele>433.82</ele>
        <time>2018-01-25T11:51:18Z</time>
      </trkpt>
      <trkpt lat="47.53115" lon="7.16298">
        <ele>432.79</ele>
        <time>2018-01-25T11:51:30Z</time>
      </trkpt>
      <trkpt lat="47.531" lon="7.16278">
        <ele>434.78</ele>
        <time>2018-01-25T11:51:42Z</time>
      </trkpt>
      <trkpt lat="47.53085" lon="7.16258">
        <ele>434.58</ele>
        <time>2018-01-25T11:51:54Z</time>
      </trkpt>
      <trkpt lat="47.53071" lon="7.16235">
        <ele>436.08</ele>
        <time>2018-01-25T11:52:06Z</time>
      </trkpt>
      <trkpt lat="47.53059" lon="7.16213">
        <ele>435.73</ele>
        <time>2018-01-25T11:52:18Z</time>
      </trkpt>
      <trkpt lat="47.53042" lon="7.16195">
        <ele>434.1</ele>
        <time>2018-01-25T11:52:33Z</time>
      </trkpt>
      <trkpt lat="47.53029" lon="7.16175">
        <ele>434.79</ele>
        <time>2018-01-25T11:52:45Z</time>
      </trkpt>
      <trkpt lat="47.53018" lon="7.16152">
        <ele>435.51</ele>
        <time>2018-01-25T11:52:57Z</time>
      </trkpt>
      <trkpt lat="47.53002" lon="7.16133">
        <ele>433.88</ele>
        <time>2018-01-25T11:53:09Z</time>
      </trkpt>
      <trkpt lat="47.52985" lon="7.16115">
        <ele>434.09</ele>
        <time>2018-01-25T11:53:21Z</time>
      </trkpt>
      <trkpt lat="47.52967" lon="7.16101">
        <ele>433.85</ele>
        <time>2018-01-25T11:53:33Z</time>
      </trkpt>
      <trkpt lat="47.52949" lon="7.16088">
        <ele>434.76</ele>
        <time>2018-01-25T11:53:43Z</time>
      </trkpt>
      <trkpt lat="47.52933" lon="7.16072">
        <ele>436.76</ele>
        <time>2018-01-25T11:53:55Z</time>
      </trkpt>
      <trkpt lat="47.52916" lon="7.16052">
        <ele>432.92</ele>
        <time>2018-01-25T11:54:07Z</time>
      </trkpt>
      <trkpt lat="47.52901" lon="7.16037">
        <ele>434.05</ele>
        <time>2018-01-25T11:54:17Z</time>
      </trkpt>
      <trkpt lat="47.52885" lon="7.16017">
        <ele>432.79</ele>
        <time>2018-01-25T11:54:29Z</time>
      </trkpt>
      <trkpt lat="47.52869" lon="7.16002">
        <ele>431.09</ele>
        <time>2018-01-25T11:54:39Z</time>
      </trkpt>
      <trkpt lat="47.52851" lon="7.15987">
        <ele>430.52</ele>
        <time>2018-01-25T11:54:51Z</time>
      </trkpt>
      <trkpt lat="47.52838" lon="7.15968">
        <ele>430.79</ele>
        <time>2018-01-25T11:55:01Z</time>
      </trkpt>
      <trkpt lat="47.52826" lon="7.15946">
        <ele>431.09</ele>
        <time>2018-01-25T11:55:11Z</time>
      </trkpt>
      <trkpt lat="47.52808" lon="7.15927">
        <ele>430.09</ele>
        <time>2018-01-25T11:55:23Z</time>
      </trkpt>
      <trkpt lat="47.52793" lon="7.15905">
        <ele>429.8</ele>
        <time>2018-01-25T11:55:35Z</time>
      </trkpt>
      <trkpt lat="47.52777" lon="7.15884">
        <ele>431.49</ele>
        <time>2018-01-25T11:55:47Z</time>
      </trkpt>
      <trkpt lat="47.52764" lon="7.15864">
        <ele>431.87</ele>
        <time>2018-01-25T11:55:59Z</time>
      </trkpt>
      <trkpt lat="47.52748" lon="7.15847">
        <ele>430.82</ele>
        <time>2018-01-25T11:56:11Z</time>
      </trkpt>
      <trkpt lat="47.52733" lon="7.15826">
        <ele>430.09</ele>
        <time>2018-01-25T11:56:23Z</time>
      </trkpt>
      <trkpt lat="47.52716" lon="7.15818">
        <ele>430.79</ele>
        <time>2018-01-25T11:56:37Z</time>
      </trkpt>
      <trkpt lat="47.52727" lon="7.15842">
        <ele>427.58</ele>
        <time>2018-01-25T11:56:55Z</time>
      </trkpt>
      <trkpt lat="47.52737" lon="7.15864">
        <ele>428.7</ele>
        <time>2018-01-25T11:57:07Z</time>
      </trkpt>
      <trkpt lat="47.52751" lon="7.15885">
        <ele>429.06</ele>
        <time>2018-01-25T11:57:20Z</time>
      </trkpt>
      <trkpt lat="47.52766" lon="7.15905">
        <ele>429.49</ele>
        <time>2018-01-25T11:57:32Z</time>
      </trkpt>
      <trkpt lat="47.52783" lon="7.15923">
        <ele>429.77</ele>
        <time>2018-01-25T11:57:46Z</time>
      </trkpt>
      <trkpt lat="47.52797" lon="7.15945">
        <ele>431.49</ele>
        <time>2018-01-25T11:58:00Z</time>
      </trkpt>
      <trkpt lat="47.52812" lon="7.15966">
        <ele>431.79</ele>
        <time>2018-01-25T11:58:12Z</time>
      </trkpt>
      <trkpt lat="47.52827" lon="7.15988">
        <ele>430.49</ele>
        <time>2018-01-25T11:58:24Z</time>
      </trkpt>
      <trkpt lat="47.52841" lon="7.1601">
        <ele>430.51</ele>
        <time>2018-01-25T11:58:36Z</time>
      </trkpt>
      <trkpt lat="47.52855" lon="7.16032">
        <ele>432</ele>
        <time>2018-01-25T11:58:50Z</time>
      </trkpt>
      <trkpt lat="47.52871" lon="7.1605">
        <ele>431.79</ele>
        <time>2018-01-25T11:58:58Z</time>
      </trkpt>
      <trkpt lat="47.52886" lon="7.16068">
        <ele>431.09</ele>
        <time>2018-01-25T11:59:09Z</time>
      </trkpt>
      <trkpt lat="47.52903" lon="7.16089">
        <ele>431.49</ele>
        <time>2018-01-25T11:59:23Z</time>
      </trkpt>
      <trkpt lat="47.5292" lon="7.16103">
        <ele>430.82</ele>
        <time>2018-01-25T11:59:33Z</time>
      </trkpt>
      <trkpt lat="47.52936" lon="7.16121">
        <ele>430.79</ele>
        <time>2018-01-25T11:59:43Z</time>
      </trkpt>
      <trkpt lat="47.52955" lon="7.16137">
        <ele>432.76</ele>
        <time>2018-01-25T11:59:57Z</time>
      </trkpt>
      <trkpt lat="47.5297" lon="7.16152">
        <ele>432.7</ele>
        <time>2018-01-25T12:00:09Z</time>
      </trkpt>
      <trkpt lat="47.52987" lon="7.16168">
        <ele>432.07</ele>
        <time>2018-01-25T12:00:27Z</time>
      </trkpt>
      <trkpt lat="47.53006" lon="7.16186">
        <ele>432.81</ele>
        <time>2018-01-25T12:00:39Z</time>
      </trkpt>
      <trkpt lat="47.53022" lon="7.16207">
        <ele>433.76</ele>
        <time>2018-01-25T12:00:49Z</time>
      </trkpt>
      <trkpt lat="47.53039" lon="7.16228">
        <ele>434.48</ele>
        <time>2018-01-25T12:01:01Z</time>
      </trkpt>
      <trkpt lat="47.53053" lon="7.16245">
        <ele>434.7</ele>
        <time>2018-01-25T12:01:11Z</time>
      </trkpt>
      <trkpt lat="47.53069" lon="7.16266">
        <ele>433.86</ele>
        <time>2018-01-25T12:01:23Z</time>
      </trkpt>
      <trkpt lat="47.53083" lon="7.16285">
        <ele>432.79</ele>
        <time>2018-01-25T12:01:33Z</time>
      </trkpt>
      <trkpt lat="47.53096" lon="7.16305">
        <ele>431.82</ele>
        <time>2018-01-25T12:01:45Z</time>
      </trkpt>
      <trkpt lat="47.53109" lon="7.16326">
        <ele>430.79</ele>
        <time>2018-01-25T12:01:57Z</time>
      </trkpt>
      <trkpt lat="47.53123" lon="7.16347">
        <ele>428.91</ele>
        <time>2018-01-25T12:02:10Z</time>
      </trkpt>
      <trkpt lat="47.53139" lon="7.1637">
        <ele>430.78</ele>
        <time>2018-01-25T12:02:22Z</time>
      </trkpt>
      <trkpt lat="47.53153" lon="7.16391">
        <ele>430.71</ele>
        <time>2018-01-25T12:02:32Z</time>
      </trkpt>
      <trkpt lat="47.53166" lon="7.16414">
        <ele>431.49</ele>
        <time>2018-01-25T12:02:44Z</time>
      </trkpt>
      <trkpt lat="47.5318" lon="7.16436">
        <ele>430.79</ele>
        <time>2018-01-25T12:02:56Z</time>
      </trkpt>
      <trkpt lat="47.53195" lon="7.16454">
        <ele>431.08</ele>
        <time>2018-01-25T12:03:08Z</time>
      </trkpt>
      <trkpt lat="47.5321" lon="7.16474">
        <ele>431</ele>
        <time>2018-01-25T12:03:20Z</time>
      </trkpt>
      <trkpt lat="47.53226" lon="7.16493">
        <ele>431.79</ele>
        <time>2018-01-25T12:03:32Z</time>
      </trkpt>
      <trkpt lat="47.53241" lon="7.16512">
        <ele>432.06</ele>
        <time>2018-01-25T12:03:46Z</time>
      </trkpt>
      <trkpt lat="47.53255" lon="7.16535">
        <ele>430.09</ele>
        <time>2018-01-25T12:03:58Z</time>
      </trkpt>
      <trkpt lat="47.5327" lon="7.16554">
        <ele>428.8</ele>
        <time>2018-01-25T12:04:08Z</time>
      </trkpt>
      <trkpt lat="47.53286" lon="7.16573">
        <ele>428.09</ele>
        <time>2018-01-25T12:04:20Z</time>
      </trkpt>
      <trkpt lat="47.53299" lon="7.16592">
        <ele>428.7</ele>
        <time>2018-01-25T12:04:32Z</time>
      </trkpt>
      <trkpt lat="47.53314" lon="7.16611">
        <ele>427.8</ele>
        <time>2018-01-25T12:04:44Z</time>
      </trkpt>
      <trkpt lat="47.53328" lon="7.16631">
        <ele>427.09</ele>
        <time>2018-01-25T12:04:54Z</time>
      </trkpt>
      <trkpt lat="47.53341" lon="7.16648">
        <ele>425.59</ele>
        <time>2018-01-25T12:05:04Z</time>
      </trkpt>
      <trkpt lat="47.53357" lon="7.16666">
        <ele>426.09</ele>
        <time>2018-01-25T12:05:14Z</time>
      </trkpt>
      <trkpt lat="47.53374" lon="7.16686">
        <ele>423.88</ele>
        <time>2018-01-25T12:05:26Z</time>
      </trkpt>
      <trkpt lat="47.5339" lon="7.16705">
        <ele>421.86</ele>
        <time>2018-01-25T12:05:38Z</time>
      </trkpt>
      <trkpt lat="47.53405" lon="7.16726">
        <ele>421.79</ele>
        <time>2018-01-25T12:05:52Z</time>
      </trkpt>
      <trkpt lat="47.5342" lon="7.16743">
        <ele>421.88</ele>
        <time>2018-01-25T12:06:02Z</time>
      </trkpt>
      <trkpt lat="47.53436" lon="7.16764">
        <ele>420.52</ele>
        <time>2018-01-25T12:06:14Z</time>
      </trkpt>
      <trkpt lat="47.53449" lon="7.16743">
        <ele>418.73</ele>
        <time>2018-01-25T12:06:30Z</time>
      </trkpt>
      <trkpt lat="47.53448" lon="7.16714">
        <ele>419.49</ele>
        <time>2018-01-25T12:06:42Z</time>
      </trkpt>
      <trkpt lat="47.53441" lon="7.16684">
        <ele>418.81</ele>
        <time>2018-01-25T12:06:53Z</time>
      </trkpt>
      <trkpt lat="47.53454" lon="7.16659">
        <ele>418.79</ele>
        <time>2018-01-25T12:07:07Z</time>
      </trkpt>
      <trkpt lat="47.53474" lon="7.16652">
        <ele>418.09</ele>
        <time>2018-01-25T12:07:19Z</time>
      </trkpt>
      <trkpt lat="47.53495" lon="7.16651">
        <ele>416.86</ele>
        <time>2018-01-25T12:07:31Z</time>
      </trkpt>
      <trkpt lat="47.53516" lon="7.1665">
        <ele>415.79</ele>
        <time>2018-01-25T12:07:43Z</time>
      </trkpt>
      <trkpt lat="47.53537" lon="7.16647">
        <ele>415.78</ele>
        <time>2018-01-25T12:07:55Z</time>
      </trkpt>
      <trkpt lat="47.53557" lon="7.16649">
        <ele>415.79</ele>
        <time>2018-01-25T12:08:06Z</time>
      </trkpt>
      <trkpt lat="47.53577" lon="7.16644">
        <ele>413.88</ele>
        <time>2018-01-25T12:08:18Z</time>
      </trkpt>
      <trkpt lat="47.53593" lon="7.16628">
        <ele>413.85</ele>
        <time>2018-01-25T12:08:30Z</time>
      </trkpt>
      <trkpt lat="47.53608" lon="7.16612">
        <ele>413.03</ele>
        <time>2018-01-25T12:08:40Z</time>
      </trkpt>
      <trkpt lat="47.53624" lon="7.16599">
        <ele>413.78</ele>
        <time>2018-01-25T12:08:50Z</time>
      </trkpt>
      <trkpt lat="47.53638" lon="7.1658">
        <ele>413.79</ele>
        <time>2018-01-25T12:09:00Z</time>
      </trkpt>
      <trkpt lat="47.53653" lon="7.1656">
        <ele>413.88</ele>
        <time>2018-01-25T12:09:12Z</time>
      </trkpt>
      <trkpt lat="47.53669" lon="7.16538">
        <ele>413.85</ele>
        <time>2018-01-25T12:09:25Z</time>
      </trkpt>
      <trkpt lat="47.53685" lon="7.1652">
        <ele>415</ele>
        <time>2018-01-25T12:09:37Z</time>
      </trkpt>
      <trkpt lat="47.53699" lon="7.16497">
        <ele>416.76</ele>
        <time>2018-01-25T12:09:49Z</time>
      </trkpt>
      <trkpt lat="47.5371" lon="7.16476">
        <ele>415.88</ele>
        <time>2018-01-25T12:09:59Z</time>
      </trkpt>
      <trkpt lat="47.53722" lon="7.16454">
        <ele>416.08</ele>
        <time>2018-01-25T12:10:11Z</time>
      </trkpt>
      <trkpt lat="47.5374" lon="7.16445">
        <ele>414.11</ele>
        <time>2018-01-25T12:10:25Z</time>
      </trkpt>
      <trkpt lat="47.53753" lon="7.16464">
        <ele>412.8</ele>
        <time>2018-01-25T12:10:37Z</time>
      </trkpt>
      <trkpt lat="47.53769" lon="7.16484">
        <ele>412.71</ele>
        <time>2018-01-25T12:10:49Z</time>
      </trkpt>
      <trkpt lat="47.53784" lon="7.16507">
        <ele>411.79</ele>
        <time>2018-01-25T12:11:01Z</time>
      </trkpt>
      <trkpt lat="47.53797" lon="7.16527">
        <ele>410.8</ele>
        <time>2018-01-25T12:11:12Z</time>
      </trkpt>
      <trkpt lat="47.53812" lon="7.16547">
        <ele>409.1</ele>
        <time>2018-01-25T12:11:24Z</time>
      </trkpt>
      <trkpt lat="47.53825" lon="7.16565">
        <ele>407.12</ele>
        <time>2018-01-25T12:11:34Z</time>
      </trkpt>
      <trkpt lat="47.53842" lon="7.16582">
        <ele>405.88</ele>
        <time>2018-01-25T12:11:44Z</time>
      </trkpt>
      <trkpt lat="47.53856" lon="7.16605">
        <ele>404.1</ele>
        <time>2018-01-25T12:11:56Z</time>
      </trkpt>
      <trkpt lat="47.53868" lon="7.16627">
        <ele>402.15</ele>
        <time>2018-01-25T12:12:08Z</time>
      </trkpt>
      <trkpt lat="47.53881" lon="7.16646">
        <ele>400.8</ele>
        <time>2018-01-25T12:12:20Z</time>
      </trkpt>
      <trkpt lat="47.53895" lon="7.16669">
        <ele>399.85</ele>
        <time>2018-01-25T12:12:32Z</time>
      </trkpt>
      <trkpt lat="47.53905" lon="7.16693">
        <ele>398.85</ele>
        <time>2018-01-25T12:12:43Z</time>
      </trkpt>
      <trkpt lat="47.53917" lon="7.16714">
        <ele>397.88</ele>
        <time>2018-01-25T12:12:53Z</time>
      </trkpt>
      <trkpt lat="47.5393" lon="7.16737">
        <ele>397.7</ele>
        <time>2018-01-25T12:13:05Z</time>
      </trkpt>
      <trkpt lat="47.53946" lon="7.16757">
        <ele>395.82</ele>
        <time>2018-01-25T12:13:17Z</time>
      </trkpt>
      <trkpt lat="47.5396" lon="7.16777">
        <ele>392.1</ele>
        <time>2018-01-25T12:13:29Z</time>
      </trkpt>
      <trkpt lat="47.53974" lon="7.16794">
        <ele>389.12</ele>
        <time>2018-01-25T12:13:39Z</time>
      </trkpt>
      <trkpt lat="47.53973" lon="7.16824">
        <ele>388.79</ele>
        <time>2018-01-25T12:13:51Z</time>
      </trkpt>
      <trkpt lat="47.53966" lon="7.16854">
        <ele>387.79</ele>
        <time>2018-01-25T12:14:03Z</time>
      </trkpt>
      <trkpt lat="47.53954" lon="7.16879">
        <ele>386.9</ele>
        <time>2018-01-25T12:14:15Z</time>
      </trkpt>
      <trkpt lat="47.5394" lon="7.16903">
        <ele>385.59</ele>
        <time>2018-01-25T12:14:27Z</time>
      </trkpt>
      <trkpt lat="47.53926" lon="7.16925">
        <ele>384.79</ele>
        <time>2018-01-25T12:14:40Z</time>
      </trkpt>
      <trkpt lat="47.53911" lon="7.16948">
        <ele>384.73</ele>
        <time>2018-01-25T12:14:52Z</time>
      </trkpt>
      <trkpt lat="47.53896" lon="7.16968">
        <ele>383.1</ele>
        <time>2018-01-25T12:15:04Z</time>
      </trkpt>
      <trkpt lat="47.53884" lon="7.16988">
        <ele>383.78</ele>
        <time>2018-01-25T12:15:14Z</time>
      </trkpt>
      <trkpt lat="47.53872" lon="7.17011">
        <ele>383.56</ele>
        <time>2018-01-25T12:15:26Z</time>
      </trkpt>
      <trkpt lat="47.53854" lon="7.16997">
        <ele>384.79</ele>
        <time>2018-01-25T12:15:40Z</time>
      </trkpt>
      <trkpt lat="47.53839" lon="7.16977">
        <ele>385</ele>
        <time>2018-01-25T12:15:52Z</time>
      </trkpt>
      <trkpt lat="47.53822" lon="7.16959">
        <ele>386</ele>
        <time>2018-01-25T12:16:04Z</time>
      </trkpt>
      <trkpt lat="47.53818" lon="7.16929">
        <ele>387.69</ele>
        <time>2018-01-25T12:16:20Z</time>
      </trkpt>
      <trkpt lat="47.53804" lon="7.16935">
        <ele>409.1</ele>
        <time>2018-01-25T12:29:33Z</time>
      </trkpt>
      <trkpt lat="47.53815" lon="7.16959">
        <ele>391.77</ele>
        <time>2018-01-25T12:30:07Z</time>
      </trkpt>
      <trkpt lat="47.53832" lon="7.1698">
        <ele>391.86</ele>
        <time>2018-01-25T12:30:19Z</time>
      </trkpt>
      <trkpt lat="47.53846" lon="7.16996">
        <ele>390.82</ele>
        <time>2018-01-25T12:30:29Z</time>
      </trkpt>
      <trkpt lat="47.53861" lon="7.17012">
        <ele>388.82</ele>
        <time>2018-01-25T12:30:39Z</time>
      </trkpt>
      <trkpt lat="47.5388" lon="7.17008">
        <ele>387.88</ele>
        <time>2018-01-25T12:30:51Z</time>
      </trkpt>
      <trkpt lat="47.53895" lon="7.16993">
        <ele>386.82</ele>
        <time>2018-01-25T12:31:01Z</time>
      </trkpt>
      <trkpt lat="47.53911" lon="7.17009">
        <ele>384.8</ele>
        <time>2018-01-25T12:31:15Z</time>
      </trkpt>
      <trkpt lat="47.53919" lon="7.17038">
        <ele>383.79</ele>
        <time>2018-01-25T12:31:27Z</time>
      </trkpt>
      <trkpt lat="47.53925" lon="7.17066">
        <ele>382.79</ele>
        <time>2018-01-25T12:31:39Z</time>
      </trkpt>
      <trkpt lat="47.53933" lon="7.17091">
        <ele>382.79</ele>
        <time>2018-01-25T12:31:49Z</time>
      </trkpt>
      <trkpt lat="47.53941" lon="7.17119">
        <ele>381.11</ele>
        <time>2018-01-25T12:32:01Z</time>
      </trkpt>
      <trkpt lat="47.53949" lon="7.17143">
        <ele>378.91</ele>
        <time>2018-01-25T12:32:11Z</time>
      </trkpt>
      <trkpt lat="47.53954" lon="7.1717">
        <ele>378.58</ele>
        <time>2018-01-25T12:32:21Z</time>
      </trkpt>
      <trkpt lat="47.53951" lon="7.17199">
        <ele>377.79</ele>
        <time>2018-01-25T12:32:33Z</time>
      </trkpt>
      <trkpt lat="47.53964" lon="7.17224">
        <ele>375.88</ele>
        <time>2018-01-25T12:32:45Z</time>
      </trkpt>
      <trkpt lat="47.53983" lon="7.17237">
        <ele>376.79</ele>
        <time>2018-01-25T12:32:57Z</time>
      </trkpt>
      <trkpt lat="47.54" lon="7.17248">
        <ele>374.82</ele>
        <time>2018-01-25T12:33:08Z</time>
      </trkpt>
      <trkpt lat="47.54014" lon="7.17231">
        <ele>375.51</ele>
        <time>2018-01-25T12:33:18Z</time>
      </trkpt>
      <trkpt lat="47.54029" lon="7.17209">
        <ele>375.79</ele>
        <time>2018-01-25T12:33:30Z</time>
      </trkpt>
      <trkpt lat="47.54044" lon="7.17189">
        <ele>374.09</ele>
        <time>2018-01-25T12:33:42Z</time>
      </trkpt>
      <trkpt lat="47.54054" lon="7.17162">
        <ele>373.79</ele>
        <time>2018-01-25T12:33:52Z</time>
      </trkpt>
      <trkpt lat="47.54063" lon="7.17137">
        <ele>372.79</ele>
        <time>2018-01-25T12:34:02Z</time>
      </trkpt>
      <trkpt lat="47.54072" lon="7.17113">
        <ele>371.82</ele>
        <time>2018-01-25T12:34:12Z</time>
      </trkpt>
      <trkpt lat="47.5409" lon="7.17099">
        <ele>372.76</ele>
        <time>2018-01-25T12:34:24Z</time>
      </trkpt>
      <trkpt lat="47.54104" lon="7.17081">
        <ele>371.82</ele>
        <time>2018-01-25T12:34:36Z</time>
      </trkpt>
      <trkpt lat="47.5412" lon="7.17065">
        <ele>372.49</ele>
        <time>2018-01-25T12:34:50Z</time>
      </trkpt>
      <trkpt lat="47.5414" lon="7.17066">
        <ele>373.7</ele>
        <time>2018-01-25T12:35:04Z</time>
      </trkpt>
      <trkpt lat="47.54153" lon="7.17085">
        <ele>401.85</ele>
        <time>2018-01-25T12:35:41Z</time>
      </trkpt>
      <trkpt lat="47.54103" lon="7.17088">
        <ele>371.01</ele>
        <time>2018-01-25T12:35:45Z</time>
      </trkpt>
      <trkpt lat="47.54144" lon="7.17081">
        <ele>384.85</ele>
        <time>2018-01-25T12:35:47Z</time>
      </trkpt>
      <trkpt lat="47.54119" lon="7.17114">
        <ele>345.77</ele>
        <time>2018-01-25T12:38:13Z</time>
      </trkpt>
      <trkpt lat="47.54171" lon="7.17077">
        <ele>410.4</ele>
        <time>2018-01-25T12:38:26Z</time>
      </trkpt>
    </trkseg>
  </trk>
</gpx>